createdAt,value
2019-05-23T00:02:29.374Z,83.93
2019-05-23T00:05:27.488Z,81.47
2019-05-23T00:08:15.414Z,102.20
2019-05-23T00:11:03.433Z,81.20
2019-05-23T00:13:48.044Z,102.50
2019-05-23T00:16:18.089Z,81.40
2019-05-23T00:18:45.705Z,96.90
2019-05-23T00:24:24.240Z,87.27
2019-05-23T00:26:52.321Z,82.53
2019-05-23T00:29:20.257Z,92.47
2019-05-23T00:31:55.009Z,80.57
2019-05-23T00:34:22.416Z,84.17
2019-05-23T00:36:52.533Z,82.40
2019-05-23T00:39:20.563Z,83.00
2019-05-23T00:41:48.148Z,82.70
2019-05-23T00:44:15.648Z,80.80
2019-05-23T00:46:44.150Z,82.83
2019-05-23T00:49:15.287Z,86.57
2019-05-23T00:51:43.099Z,80.27
2019-05-23T00:54:10.971Z,81.97
2019-05-23T00:56:38.846Z,81.90
2019-05-23T00:59:07.482Z,81.70
2019-05-23T01:01:37.958Z,93.40
2019-05-23T01:04:06.181Z,79.83
2019-05-23T01:06:35.375Z,89.73
2019-05-23T01:09:06.386Z,83.00
2019-05-23T01:11:34.284Z,81.03
2019-05-23T01:14:02.062Z,80.90
2019-05-23T01:16:31.392Z,84.30
2019-05-23T01:19:01.183Z,80.43
2019-05-23T01:21:44.416Z,80.37
2019-05-23T01:24:19.325Z,83.20
2019-05-23T01:26:47.902Z,80.97
2019-05-23T01:29:18.831Z,82.93
2019-05-23T01:31:48.479Z,80.33
2019-05-23T01:34:16.108Z,81.37
2019-05-23T01:36:45.164Z,84.60
2019-05-23T01:39:13.199Z,90.63
2019-05-23T01:41:41.825Z,82.77
2019-05-23T01:44:10.800Z,87.87
2019-05-23T01:46:39.589Z,79.87
2019-05-23T01:49:07.540Z,96.63
2019-05-23T01:51:36.589Z,83.83
2019-05-23T01:54:05.271Z,80.67
2019-05-23T01:56:33.456Z,82.70
2019-05-23T01:59:01.451Z,82.23
2019-05-23T02:01:29.264Z,83.03
2019-05-23T02:03:56.767Z,83.07
2019-05-23T02:06:24.259Z,83.20
2019-05-23T02:08:53.946Z,79.47
2019-05-23T02:11:23.526Z,86.10
2019-05-23T02:13:51.378Z,80.87
2019-05-23T02:16:20.214Z,82.43
2019-05-23T02:18:48.482Z,81.57
2019-05-23T02:21:18.581Z,107.30
2019-05-23T02:23:46.660Z,82.20
2019-05-23T02:26:16.240Z,81.27
2019-05-23T02:28:45.160Z,80.17
2019-05-23T02:31:13.631Z,87.10
2019-05-23T02:33:42.321Z,82.43
2019-05-23T02:36:11.120Z,82.90
2019-05-23T02:38:54.842Z,84.73
2019-05-23T02:41:32.562Z,82.30
2019-05-23T02:44:06.297Z,82.00
2019-05-23T02:46:50.399Z,93.87
2019-05-23T02:49:20.332Z,83.20
2019-05-23T02:51:49.157Z,86.43
2019-05-23T02:54:18.932Z,83.97
2019-05-23T02:56:47.134Z,82.43
2019-05-23T02:59:45.773Z,84.63
2019-05-23T03:02:55.816Z,82.27
2019-05-23T03:05:25.499Z,81.63
2019-05-23T03:07:59.902Z,81.83
2019-05-23T03:10:54.266Z,84.53
2019-05-23T03:13:25.683Z,82.30
2019-05-23T03:15:54.543Z,84.70
2019-05-23T03:18:22.780Z,84.47
2019-05-23T03:20:53.839Z,82.87
2019-05-23T03:23:21.363Z,83.37
2019-05-23T03:26:51.132Z,83.97
2019-05-23T03:29:20.758Z,82.23
2019-05-23T03:32:00.438Z,84.70
2019-05-23T03:34:30.242Z,92.80
2019-05-23T03:36:58.463Z,81.90
2019-05-23T03:39:27.149Z,84.50
2019-05-23T03:41:55.662Z,80.60
2019-05-23T03:44:24.753Z,81.07
2019-05-23T03:46:52.902Z,89.67
2019-05-23T03:49:20.976Z,85.53
2019-05-23T03:51:48.628Z,90.20
2019-05-23T03:54:17.548Z,86.07
2019-05-23T03:56:46.195Z,94.27
2019-05-23T03:59:14.926Z,83.60
2019-05-23T04:01:48.638Z,85.03
2019-05-23T04:04:14.661Z,82.23
2019-05-23T04:06:43.229Z,84.37
2019-05-23T04:09:11.194Z,81.40
2019-05-23T04:11:38.826Z,83.40
2019-05-23T04:14:07.049Z,87.67
2019-05-23T04:16:34.402Z,86.47
2019-05-23T04:19:02.040Z,83.30
2019-05-23T04:21:29.347Z,87.27
2019-05-23T04:23:56.791Z,85.93
2019-05-23T04:26:24.223Z,83.43
2019-05-23T04:28:51.832Z,98.67
2019-05-23T04:31:19.740Z,82.97
2019-05-23T04:33:47.355Z,84.33
2019-05-23T04:36:17.079Z,89.67
2019-05-23T04:38:44.756Z,85.07
2019-05-23T04:41:12.565Z,83.83
2019-05-23T04:43:40.096Z,83.40
2019-05-23T04:46:07.674Z,82.87
2019-05-23T04:48:35.437Z,82.20
2019-05-23T04:51:03.423Z,86.93
2019-05-23T04:53:31.825Z,93.33
2019-05-23T04:56:00.084Z,83.73
2019-05-23T04:58:27.779Z,87.40
2019-05-23T05:00:55.880Z,99.70
2019-05-23T05:03:23.648Z,83.90
2019-05-23T05:05:54.080Z,88.20
2019-05-23T05:08:21.654Z,82.90
2019-05-23T05:10:49.286Z,82.90
2019-05-23T05:13:16.807Z,82.47
2019-05-23T05:15:45.290Z,81.60
2019-05-23T05:18:14.703Z,95.30
2019-05-23T05:20:42.429Z,79.37
2019-05-23T05:23:10.496Z,84.00
2019-05-23T05:25:37.931Z,84.53
2019-05-23T05:28:05.514Z,85.50
2019-05-23T05:30:32.879Z,81.63
2019-05-23T05:33:01.084Z,91.57
2019-05-23T05:35:29.582Z,84.93
2019-05-23T05:37:57.185Z,105.33
2019-05-23T05:40:25.414Z,85.97
2019-05-23T05:42:53.332Z,83.67
2019-05-23T05:45:20.944Z,85.03
2019-05-23T05:47:48.887Z,86.73
2019-05-23T05:50:19.025Z,86.37
2019-05-23T05:52:46.749Z,90.10
2019-05-23T05:55:14.210Z,89.53
2019-05-23T05:57:45.572Z,86.03
2019-05-23T06:00:38.719Z,81.83
2019-05-23T06:03:07.444Z,79.77
2019-05-23T06:06:13.637Z,82.83
2019-05-23T06:08:43.163Z,84.60
2019-05-23T06:11:12.263Z,88.63
2019-05-23T06:13:39.962Z,94.67
2019-05-23T06:16:07.658Z,84.23
2019-05-23T06:18:35.757Z,82.43
2019-05-23T06:21:05.549Z,87.33
2019-05-23T06:23:34.028Z,84.97
2019-05-23T06:26:01.899Z,88.60
2019-05-23T06:28:31.021Z,87.53
2019-05-23T06:30:59.942Z,94.10
2019-05-23T06:33:27.771Z,85.03
2019-05-23T06:35:55.709Z,86.83
2019-05-23T06:38:24.778Z,84.73
2019-05-23T06:40:52.863Z,93.93
2019-05-23T06:43:21.055Z,81.33
2019-05-23T06:45:49.469Z,81.90
2019-05-23T06:48:17.405Z,83.80
2019-05-23T06:50:45.030Z,81.33
2019-05-23T06:53:12.832Z,82.30
2019-05-23T06:55:40.289Z,84.73
2019-05-23T06:58:10.228Z,81.63
2019-05-23T07:00:38.983Z,81.40
2019-05-23T07:03:06.376Z,93.33
2019-05-23T07:05:37.061Z,81.83
2019-05-23T07:08:04.791Z,86.93
2019-05-23T07:10:33.868Z,90.43
2019-05-23T07:13:02.009Z,81.03
2019-05-23T07:15:29.706Z,81.53
2019-05-23T07:17:58.662Z,93.70
2019-05-23T07:20:26.385Z,82.70
2019-05-23T07:22:56.140Z,81.57
2019-05-23T07:25:23.834Z,81.10
2019-05-23T07:27:51.645Z,79.00
2019-05-23T07:30:24.089Z,82.60
2019-05-23T07:32:52.097Z,84.57
2019-05-23T07:35:20.379Z,82.07
2019-05-23T07:37:48.027Z,83.13
2019-05-23T07:40:16.534Z,95.80
2019-05-23T07:42:44.541Z,82.83
2019-05-23T07:45:16.879Z,88.30
2019-05-23T07:47:44.445Z,81.97
2019-05-23T07:50:12.637Z,82.83
2019-05-23T07:52:40.636Z,84.23
2019-05-23T07:55:15.617Z,81.40
2019-05-23T07:57:43.904Z,81.47
2019-05-23T08:00:20.131Z,84.57
2019-05-23T08:02:51.254Z,83.23
2019-05-23T08:05:22.659Z,82.43
2019-05-23T08:07:50.320Z,83.67
2019-05-23T08:10:32.508Z,84.80
2019-05-23T08:12:47.797Z,87.67
2019-05-23T08:15:16.525Z,83.00
2019-05-23T08:17:44.302Z,83.07
2019-05-23T08:20:13.732Z,93.57
2019-05-23T08:22:41.555Z,92.60
2019-05-23T08:25:09.140Z,85.40
2019-05-23T08:27:36.856Z,85.77
2019-05-23T08:30:06.837Z,81.93
2019-05-23T08:32:34.575Z,86.03
2019-05-23T08:35:02.728Z,86.73
2019-05-23T08:37:30.609Z,83.20
2019-05-23T08:39:58.607Z,85.73
2019-05-23T08:42:26.769Z,84.10
2019-05-23T08:44:55.219Z,83.03
2019-05-23T08:47:23.188Z,86.33
2019-05-23T08:49:51.451Z,85.90
2019-05-23T08:52:19.301Z,82.70
2019-05-23T08:54:53.000Z,88.23
2019-05-23T08:57:20.436Z,84.53
2019-05-23T08:59:48.644Z,115.67
2019-05-23T09:02:16.215Z,85.30
2019-05-23T09:05:02.271Z,92.47
2019-05-23T09:07:13.799Z,82.87
2019-05-23T09:09:42.396Z,86.50
2019-05-23T09:12:11.955Z,86.13
2019-05-23T09:14:40.873Z,83.90
2019-05-23T09:17:08.822Z,86.10
2019-05-23T09:19:36.454Z,85.07
2019-05-23T09:22:04.201Z,85.53
2019-05-23T09:24:31.561Z,90.43
2019-05-23T09:26:59.196Z,84.03
2019-05-23T09:29:26.960Z,85.67
2019-05-23T09:31:54.420Z,87.83
2019-05-23T09:34:22.109Z,87.87
2019-05-23T09:36:49.783Z,104.97
2019-05-23T09:39:20.175Z,83.63
2019-05-23T09:41:47.729Z,84.80
2019-05-23T09:44:15.340Z,120.13
2019-05-23T09:46:43.032Z,111.40
2019-05-23T09:49:11.445Z,124.23
2019-05-23T09:51:39.428Z,130.10
2019-05-23T09:54:07.350Z,125.30
2019-05-23T09:56:35.467Z,105.40
2019-05-23T09:59:03.143Z,112.20
2019-05-23T10:01:30.776Z,101.97
2019-05-23T10:03:58.697Z,86.23
2019-05-23T10:06:26.294Z,93.20
2019-05-23T10:08:54.971Z,119.53
2019-05-23T10:11:22.263Z,107.70
2019-05-23T10:13:49.709Z,102.57
2019-05-23T10:16:18.724Z,105.30
2019-05-23T10:18:46.740Z,97.23
2019-05-23T10:21:14.307Z,121.30
2019-05-23T10:23:41.720Z,109.33
2019-05-23T10:26:09.265Z,105.50
2019-05-23T10:28:36.838Z,113.67
2019-05-23T10:31:06.298Z,106.80
2019-05-23T10:33:34.384Z,114.20
2019-05-23T10:36:02.262Z,104.73
2019-05-23T10:38:30.276Z,104.37
2019-05-23T10:40:58.150Z,104.33
2019-05-23T10:43:25.623Z,106.00
2019-05-23T10:45:52.946Z,125.53
2019-05-23T10:48:21.839Z,109.80
2019-05-23T10:50:49.830Z,101.70
2019-05-23T10:53:17.653Z,106.27
2019-05-23T10:55:46.472Z,101.20
2019-05-23T10:58:15.733Z,105.73
2019-05-23T11:00:44.216Z,133.20
2019-05-23T11:03:12.473Z,109.60
2019-05-23T11:05:40.228Z,105.53
2019-05-23T11:08:08.999Z,117.87
2019-05-23T11:10:36.668Z,114.77
2019-05-23T11:13:04.251Z,108.93
2019-05-23T11:15:32.127Z,113.73
2019-05-23T11:17:59.638Z,125.70
2019-05-23T11:20:27.621Z,117.70
2019-05-23T11:23:16.528Z,113.93
2019-05-23T11:25:44.266Z,116.00
2019-05-23T11:28:11.845Z,123.87
2019-05-23T11:30:50.641Z,107.37
2019-05-23T11:33:19.921Z,116.20
2019-05-23T11:35:48.093Z,105.53
2019-05-23T11:38:16.049Z,125.33
2019-05-23T11:40:43.589Z,113.83
2019-05-23T11:43:11.613Z,84.37
2019-05-23T11:45:46.407Z,122.53
2019-05-23T11:48:16.167Z,114.50
2019-05-23T11:50:44.071Z,112.37
2019-05-23T11:53:11.614Z,117.17
2019-05-23T11:55:38.983Z,108.43
2019-05-23T11:58:06.647Z,117.83
2019-05-23T12:01:35.697Z,115.77
2019-05-23T12:04:17.427Z,122.03
2019-05-23T12:06:56.099Z,102.67
2019-05-23T12:09:23.058Z,127.13
2019-05-23T12:11:50.608Z,104.47
2019-05-23T12:14:18.313Z,84.83
2019-05-23T12:16:46.482Z,118.37
2019-05-23T12:19:14.661Z,134.73
2019-05-23T12:21:42.282Z,133.27
2019-05-23T12:24:11.195Z,138.70
2019-05-23T12:26:38.909Z,122.83
2019-05-23T12:29:06.821Z,144.17
2019-05-23T12:31:35.534Z,120.93
2019-05-23T12:34:03.237Z,122.43
2019-05-23T12:36:30.954Z,130.40
2019-05-23T12:39:00.357Z,151.67
2019-05-23T12:41:31.863Z,124.17
2019-05-23T12:44:00.041Z,137.17
2019-05-23T12:46:30.192Z,121.33
2019-05-23T12:49:06.590Z,118.10
2019-05-23T12:51:35.397Z,117.90
2019-05-23T12:54:03.488Z,133.73
2019-05-23T12:56:32.251Z,132.37
2019-05-23T12:58:59.824Z,129.97
2019-05-23T13:01:29.535Z,121.00
2019-05-23T13:03:57.636Z,134.30
2019-05-23T13:06:25.580Z,121.63
2019-05-23T13:08:53.217Z,117.83
2019-05-23T13:11:21.502Z,118.90
2019-05-23T13:13:49.997Z,121.07
2019-05-23T13:16:18.249Z,121.73
2019-05-23T13:18:46.016Z,121.37
2019-05-23T13:21:13.802Z,126.90
2019-05-23T13:23:41.713Z,120.43
2019-05-23T13:26:10.792Z,124.17
2019-05-23T13:28:39.124Z,124.10
2019-05-23T13:31:06.714Z,107.70
2019-05-23T13:33:34.682Z,116.53
2019-05-23T13:36:02.743Z,118.97
2019-05-23T13:38:30.604Z,118.77
2019-05-23T13:40:58.537Z,115.03
2019-05-23T13:43:26.709Z,110.33
2019-05-23T13:45:54.373Z,119.97
2019-05-23T13:48:27.970Z,115.70
2019-05-23T13:50:54.467Z,112.80
2019-05-23T13:53:22.061Z,111.40
2019-05-23T13:55:50.867Z,119.83
2019-05-23T13:58:18.945Z,119.20
2019-05-23T14:00:48.068Z,113.47
2019-05-23T14:03:16.508Z,120.33
2019-05-23T14:05:44.566Z,114.37
2019-05-23T14:08:13.555Z,122.43
2019-05-23T14:10:41.730Z,124.67
2019-05-23T14:13:09.361Z,134.30
2019-05-23T14:15:40.893Z,117.73
2019-05-23T14:18:09.344Z,124.27
2019-05-23T14:20:37.135Z,118.20
2019-05-23T14:23:15.164Z,119.37
2019-05-23T14:25:43.463Z,112.43
2019-05-23T14:28:11.323Z,110.37
2019-05-23T14:30:43.038Z,110.73
2019-05-23T14:33:22.997Z,113.93
2019-05-23T14:35:52.849Z,113.20
2019-05-23T14:38:30.408Z,110.33
2019-05-23T14:40:50.960Z,111.33
2019-05-23T14:43:25.340Z,113.67
2019-05-23T14:46:04.007Z,114.73
2019-05-23T14:48:50.408Z,112.10
2019-05-23T14:51:43.877Z,129.37
2019-05-23T14:54:21.602Z,130.07
2019-05-23T14:56:49.481Z,123.23
2019-05-23T14:59:17.637Z,135.37
2019-05-23T15:01:45.739Z,130.33
2019-05-23T15:04:13.334Z,130.10
2019-05-23T15:06:40.905Z,121.47
2019-05-23T15:09:08.789Z,135.30
2019-05-23T15:11:36.989Z,132.57
2019-05-23T15:14:05.017Z,129.63
2019-05-23T15:16:32.678Z,130.00
2019-05-23T15:19:00.597Z,127.47
2019-05-23T15:21:28.156Z,125.37
2019-05-23T15:23:55.947Z,128.33
2019-05-23T15:26:24.090Z,121.50
2019-05-23T15:28:51.932Z,124.83
2019-05-23T15:31:20.660Z,125.53
2019-05-23T15:33:48.492Z,119.80
2019-05-23T15:36:15.972Z,126.63
2019-05-23T15:38:44.009Z,123.60
2019-05-23T15:41:11.678Z,126.40
2019-05-23T15:43:39.636Z,120.00
2019-05-23T15:46:07.466Z,126.40
2019-05-23T15:48:35.215Z,134.70
2019-05-23T15:51:03.139Z,131.57
2019-05-23T15:53:40.935Z,138.40
2019-05-23T15:56:26.845Z,127.03
2019-05-23T15:58:53.662Z,126.97
2019-05-23T16:01:32.387Z,130.60
2019-05-23T16:04:04.464Z,139.50
2019-05-23T16:06:34.439Z,121.17
2019-05-23T16:09:06.138Z,129.23
2019-05-23T16:11:33.856Z,127.60
2019-05-23T16:14:01.789Z,134.50
2019-05-23T16:16:36.314Z,129.83
2019-05-23T16:19:05.244Z,139.87
2019-05-23T16:21:35.869Z,127.40
2019-05-23T16:24:05.772Z,145.97
2019-05-23T16:26:34.443Z,130.90
2019-05-23T16:29:02.644Z,138.87
2019-05-23T16:31:33.372Z,140.50
2019-05-23T16:34:01.693Z,135.53
2019-05-23T16:36:29.876Z,153.43
2019-05-23T16:38:59.152Z,131.73
2019-05-23T16:41:28.764Z,138.30
2019-05-23T16:43:58.068Z,141.87
2019-05-23T16:46:28.155Z,135.33
2019-05-23T16:48:58.213Z,147.90
2019-05-23T16:51:27.835Z,133.37
2019-05-23T16:53:55.528Z,142.30
2019-05-23T16:56:32.352Z,129.03
2019-05-23T16:59:19.440Z,140.87
2019-05-23T17:02:06.725Z,133.47
2019-05-23T17:04:39.553Z,142.30
2019-05-23T17:07:26.005Z,129.90
2019-05-23T17:10:08.826Z,139.03
2019-05-23T17:12:42.585Z,123.20
2019-05-23T17:15:29.685Z,131.07
2019-05-23T17:18:27.060Z,133.80
2019-05-23T17:21:12.106Z,141.93
2019-05-23T17:23:47.174Z,132.80
2019-05-23T17:26:20.735Z,139.07
2019-05-23T17:28:50.547Z,128.47
2019-05-23T17:31:19.671Z,148.50
2019-05-23T17:33:48.427Z,150.90
2019-05-23T17:36:16.752Z,154.37
2019-05-23T17:38:44.889Z,152.43
2019-05-23T17:41:13.479Z,147.87
2019-05-23T17:43:40.988Z,144.97
2019-05-23T17:46:09.965Z,150.53
2019-05-23T17:48:39.335Z,140.97
2019-05-23T17:51:07.341Z,139.67
2019-05-23T17:53:35.199Z,148.00
2019-05-23T17:56:04.235Z,156.63
2019-05-23T17:58:32.153Z,144.57
2019-05-23T18:01:02.201Z,150.47
2019-05-23T18:03:31.295Z,148.43
2019-05-23T18:06:02.022Z,141.50
2019-05-23T18:08:33.955Z,137.30
2019-05-23T18:11:05.253Z,138.10
2019-05-23T18:13:35.758Z,139.50
2019-05-23T18:16:07.597Z,145.70
2019-05-23T18:18:38.134Z,131.67
2019-05-23T18:21:09.381Z,135.23
2019-05-23T18:23:40.737Z,136.27
2019-05-23T18:26:11.984Z,140.83
2019-05-23T18:28:47.191Z,134.73
2019-05-23T18:31:26.873Z,137.03
2019-05-23T18:33:58.718Z,137.93
2019-05-23T18:36:33.442Z,139.03
2019-05-23T18:39:07.965Z,146.57
2019-05-23T18:41:39.705Z,138.63
2019-05-23T18:44:15.403Z,141.20
2019-05-23T18:46:50.241Z,145.27
2019-05-23T18:49:27.365Z,143.03
2019-05-23T18:51:58.804Z,130.83
2019-05-23T18:54:29.101Z,175.93
2019-05-23T18:57:01.347Z,149.60
2019-05-23T18:59:32.713Z,147.57
2019-05-23T19:02:02.995Z,130.57
2019-05-23T19:04:35.150Z,153.60
2019-05-23T19:07:09.486Z,137.40
2019-05-23T19:09:42.133Z,149.30
2019-05-23T19:12:14.389Z,135.73
2019-05-23T19:14:44.554Z,145.40
2019-05-23T19:17:15.389Z,136.63
2019-05-23T19:19:48.193Z,141.03
2019-05-23T19:22:22.844Z,137.13
2019-05-23T19:24:52.847Z,139.13
2019-05-23T19:27:23.358Z,137.30
2019-05-23T19:29:54.163Z,148.87
2019-05-23T19:32:26.829Z,139.80
2019-05-23T19:34:57.224Z,134.13
2019-05-23T19:37:27.218Z,130.80
2019-05-23T19:39:57.679Z,133.90
2019-05-23T19:42:26.339Z,160.63
2019-05-23T19:44:53.837Z,136.77
2019-05-23T19:47:21.456Z,145.13
2019-05-23T19:49:52.132Z,151.77
2019-05-23T19:52:20.498Z,135.97
2019-05-23T19:54:48.198Z,141.23
2019-05-23T19:57:15.911Z,127.30
2019-05-23T19:59:43.481Z,145.37
2019-05-23T20:02:29.660Z,145.73
2019-05-23T20:05:01.594Z,138.10
2019-05-23T20:07:30.396Z,147.40
2019-05-23T20:09:57.974Z,148.67
2019-05-23T20:12:25.966Z,131.47
2019-05-23T20:14:53.844Z,147.50
2019-05-23T20:17:21.583Z,136.40
2019-05-23T20:19:50.530Z,147.17
2019-05-23T20:22:19.444Z,141.47
2019-05-23T20:24:47.623Z,158.10
2019-05-23T20:27:15.170Z,133.90
2019-05-23T20:29:42.964Z,136.93
2019-05-23T20:32:10.365Z,157.77
2019-05-23T20:34:38.258Z,159.83
2019-05-23T20:37:08.843Z,132.97
2019-05-23T20:39:36.504Z,145.33
2019-05-23T20:42:11.578Z,140.57
2019-05-23T20:44:33.438Z,147.60
2019-05-23T20:47:00.787Z,141.30
2019-05-23T20:49:28.204Z,152.10
2019-05-23T20:51:59.159Z,136.00
2019-05-23T20:54:27.697Z,145.87
2019-05-23T20:56:55.807Z,131.07
2019-05-23T20:59:23.880Z,157.17
2019-05-23T21:01:57.198Z,149.77
2019-05-23T21:04:24.662Z,150.60
2019-05-23T21:06:52.128Z,142.07
2019-05-23T21:09:19.991Z,149.40
2019-05-23T21:11:47.630Z,135.33
2019-05-23T21:14:15.563Z,154.27
2019-05-23T21:16:43.124Z,141.40
2019-05-23T21:19:10.551Z,153.33
2019-05-23T21:21:37.878Z,140.07
2019-05-23T21:24:05.708Z,143.83
2019-05-23T21:26:33.145Z,135.87
2019-05-23T21:29:01.817Z,143.17
2019-05-23T21:31:29.682Z,153.53
2019-05-23T21:33:57.246Z,141.67
2019-05-23T21:36:26.020Z,141.47
2019-05-23T21:38:54.832Z,168.07
2019-05-23T21:41:22.454Z,142.50
2019-05-23T21:43:52.226Z,142.20
2019-05-23T21:46:19.718Z,148.37
2019-05-23T21:48:47.147Z,143.37
2019-05-23T21:51:14.607Z,136.83
2019-05-23T21:53:42.162Z,146.43
2019-05-23T21:56:09.690Z,146.90
2019-05-23T21:58:37.283Z,138.43
2019-05-23T22:01:29.105Z,133.80
2019-05-23T22:04:14.983Z,147.77
2019-05-23T22:07:01.996Z,147.60
2019-05-23T22:09:30.063Z,152.33
2019-05-23T22:11:57.660Z,129.77
2019-05-23T22:14:25.341Z,136.13
2019-05-23T22:16:52.913Z,134.10
2019-05-23T22:19:22.183Z,151.13
2019-05-23T22:21:49.778Z,125.87
2019-05-23T22:24:19.069Z,137.73
2019-05-23T22:26:46.496Z,140.13
2019-05-23T22:29:15.416Z,149.30
2019-05-23T22:31:43.106Z,132.70
2019-05-23T22:34:17.194Z,153.17
2019-05-23T22:36:44.553Z,125.03
2019-05-23T22:39:11.958Z,138.13
2019-05-23T22:41:39.430Z,123.93
2019-05-23T22:44:08.881Z,140.10
2019-05-23T22:46:36.775Z,130.13
2019-05-23T22:49:05.335Z,139.60
2019-05-23T22:51:32.957Z,119.00
2019-05-23T22:54:00.378Z,139.77
2019-05-23T22:56:27.788Z,129.30
2019-05-23T22:58:55.402Z,128.23
2019-05-23T23:01:25.256Z,144.03
2019-05-23T23:03:52.679Z,156.93
2019-05-23T23:06:20.956Z,134.93
2019-05-23T23:08:48.505Z,126.53
2019-05-23T23:11:15.934Z,133.73
2019-05-23T23:13:44.122Z,123.83
2019-05-23T23:16:12.248Z,131.60
2019-05-23T23:18:39.581Z,137.47
2019-05-23T23:21:07.015Z,126.83
2019-05-23T23:23:34.410Z,123.33
2019-05-23T23:26:01.751Z,126.83
2019-05-23T23:28:29.176Z,143.73
2019-05-23T23:30:57.206Z,142.40
2019-05-23T23:33:24.797Z,131.23
2019-05-23T23:35:52.289Z,143.77
2019-05-23T23:38:19.819Z,133.73
2019-05-23T23:40:47.443Z,133.33
2019-05-23T23:43:14.917Z,131.20
2019-05-23T23:46:00.989Z,122.37
2019-05-23T23:48:47.446Z,130.33
2019-05-23T23:51:33.100Z,139.47
2019-05-23T23:54:18.498Z,129.47
2019-05-23T23:57:04.597Z,139.27
2019-05-23T23:59:31.729Z,155.10
